Time;durP1;ratioP1;P1;durP2;ratioP2;P2;SDS_P1;SDS_P2;PMS_P1;PMS_P2;Temp;Humidity;BMP_temperature;BMP_pressure;BME280_temperature;BME280_humidity;BME280_pressure;Samples;Min_cycle;Max_cycle;Signal;HPM_P1;HPM_P2
2021/04/03 00:00:59;;;;;;;7.22;4.13;;;5.30;99.90;;;;;;5006729;28;20037;-73
2021/04/03 00:03:27;;;;;;;6.80;3.90;;;5.30;99.90;;;;;;5012868;28;20018;-74
2021/04/03 00:05:53;;;;;;;5.78;3.95;;;5.30;99.90;;;;;;5012608;28;20029;-73
2021/04/03 00:08:24;;;;;;;8.55;4.25;;;5.40;99.90;;;;;;5012837;28;20101;-74
2021/04/03 00:10:51;;;;;;;8.48;4.30;;;5.40;99.90;;;;;;5008588;28;20103;-74
2021/04/03 00:13:19;;;;;;;6.95;4.03;;;5.30;99.90;;;;;;5011612;28;20030;-74
2021/04/03 00:15:46;;;;;;;5.97;3.97;;;5.40;99.90;;;;;;5006967;28;20151;-74
2021/04/03 00:18:16;;;;;;;9.02;4.25;;;5.30;99.90;;;;;;5012812;28;20033;-75
2021/04/03 00:20:45;;;;;;;6.90;3.90;;;5.40;99.90;;;;;;5006692;28;20081;-74
2021/04/03 00:23:11;;;;;;;11.30;3.85;;;5.30;99.90;;;;;;5012766;28;20053;-73
2021/04/03 00:25:36;;;;;;;9.55;4.07;;;5.20;99.90;;;;;;5019382;28;20026;-74
2021/04/03 00:28:02;;;;;;;5.10;3.60;;;5.20;99.90;;;;;;5007967;28;20446;-73
2021/04/03 00:30:28;;;;;;;6.50;3.45;;;5.10;99.90;;;;;;5008427;28;20368;-74
2021/04/03 00:32:57;;;;;;;9.63;4.00;;;5.20;99.90;;;;;;4999178;28;20033;-73
2021/04/03 00:35:25;;;;;;;7.60;3.78;;;5.30;99.90;;;;;;5003133;28;20483;-73
2021/04/03 00:37:52;;;;;;;7.63;3.55;;;5.20;99.90;;;;;;4999785;28;20022;-73
2021/04/03 00:40:25;;;;;;;5.47;3.65;;;5.20;99.90;;;;;;5006077;28;20026;-73
2021/04/03 00:42:51;;;;;;;5.00;3.13;;;5.20;99.90;;;;;;5006187;28;20034;-74
2021/04/03 00:45:19;;;;;;;7.25;3.65;;;5.20;99.90;;;;;;4999755;28;20034;-72
2021/04/03 00:47:44;;;;;;;6.00;3.40;;;5.10;99.90;;;;;;5025701;28;20026;-73
2021/04/03 00:50:14;;;;;;;9.38;3.47;;;5.10;99.90;;;;;;5004115;28;20031;-71
2021/04/03 00:52:40;;;;;;;5.38;3.58;;;5.20;99.90;;;;;;4992626;28;20026;-71
2021/04/03 00:55:08;;;;;;;6.70;3.65;;;5.20;99.90;;;;;;5004668;28;20030;-71
2021/04/03 00:57:34;;;;;;;9.55;3.30;;;5.20;99.90;;;;;;5004468;28;20037;-69
2021/04/03 01:00:00;;;;;;;7.40;3.40;;;5.20;99.90;;;;;;5000426;28;20034;-71
2021/04/03 01:02:26;;;;;;;5.10;3.20;;;5.00;99.90;;;;;;4997979;28;20522;-70
2021/04/03 01:04:51;;;;;;;8.95;4.00;;;5.00;99.90;;;;;;5000229;28;20044;-71
2021/04/03 01:07:17;;;;;;;6.25;3.65;;;5.10;99.90;;;;;;5025524;28;20431;-73
2021/04/03 01:09:44;;;;;;;4.50;3.10;;;5.20;99.90;;;;;;5004633;28;20041;-71
2021/04/03 01:12:16;;;;;;;7.22;3.85;;;5.10;99.90;;;;;;5006844;28;20026;-71
2021/04/03 01:14:52;;;;;;;8.57;3.35;;;5.10;99.90;;;;;;5003380;28;20077;-72
2021/04/03 01:17:21;;;;;;;;;;;5.00;99.90;;;;;;5006123;28;20085;-73
2021/04/03 01:20:05;;;;;;;5.20;3.50;;;5.10;99.90;;;;;;5002739;28;20322;-70
2021/04/03 01:22:59;;;;;;;6.93;3.60;;;5.10;99.90;;;;;;4998756;28;20026;-71
2021/04/03 01:25:31;;;;;;;9.60;3.83;;;5.10;99.90;;;;;;5011820;28;20112;-73
2021/04/03 01:28:28;;;;;;;5.35;3.60;;;5.20;99.90;;;;;;5000709;28;20483;-72
2021/04/03 01:30:53;;;;;;;;;;;5.30;99.90;;;;;;4992856;28;20057;-72
2021/04/03 01:33:23;;;;;;;7.87;3.83;;;5.20;99.90;;;;;;5007069;28;19959;-72
2021/04/03 01:35:51;;;;;;;5.57;3.63;;;5.10;99.90;;;;;;5006014;28;20468;-73
2021/04/03 01:38:24;;;;;;;5.75;3.80;;;5.20;99.90;;;;;;5002761;28;20140;-72
2021/04/03 01:40:52;;;;;;;6.32;3.70;;;5.10;99.90;;;;;;5003675;28;20030;-72
2021/04/03 01:43:25;;;;;;;4.75;3.40;;;5.20;99.90;;;;;;5008074;28;20022;-73
2021/04/03 01:45:55;;;;;;;6.10;3.38;;;5.10;99.90;;;;;;5007095;28;20030;-72
2021/04/03 01:48:22;;;;;;;5.25;3.40;;;5.10;99.90;;;;;;5002900;28;20010;-72
2021/04/03 01:50:49;;;;;;;6.18;3.65;;;5.10;99.90;;;;;;5002593;28;20026;-72
2021/04/03 01:53:17;;;;;;;4.55;3.50;;;5.10;99.90;;;;;;5010028;28;20034;-72
2021/04/03 01:55:44;;;;;;;6.80;3.58;;;5.30;99.90;;;;;;5002235;28;20433;-72
2021/04/03 01:58:10;;;;;;;6.38;3.75;;;5.40;99.90;;;;;;5002633;28;20096;-72
2021/04/03 02:00:37;;;;;;;6.07;3.58;;;5.40;99.90;;;;;;5013868;28;20045;-72
2021/04/03 02:03:04;;;;;;;5.30;3.35;;;5.50;99.90;;;;;;5015956;28;20030;-72
2021/04/03 02:05:31;;;;;;;7.13;3.50;;;5.50;99.90;;;;;;5027781;28;20532;-72
2021/04/03 02:07:59;;;;;;;7.93;3.60;;;5.40;99.90;;;;;;5007258;28;20033;-73
2021/04/03 02:10:27;;;;;;;7.00;3.75;;;5.30;99.90;;;;;;5009954;28;20026;-72
2021/04/03 02:12:53;;;;;;;5.80;3.70;;;5.20;99.90;;;;;;5015313;28;20038;-72
2021/04/03 02:15:22;;;;;;;6.60;3.40;;;5.20;99.90;;;;;;5010816;28;20033;-72
2021/04/03 02:17:50;;;;;;;6.25;3.88;;;5.20;99.90;;;;;;5013843;28;20484;-73
2021/04/03 02:20:16;;;;;;;6.80;3.78;;;5.30;99.90;;;;;;5001818;28;20038;-73
2021/04/03 02:22:43;;;;;;;7.65;4.00;;;5.20;99.90;;;;;;5015136;28;20022;-73
2021/04/03 02:25:12;;;;;;;4.93;3.40;;;5.20;99.90;;;;;;5014592;28;20571;-73
2021/04/03 02:27:39;;;;;;;5.20;3.70;;;5.30;99.90;;;;;;5005692;28;20157;-73
2021/04/03 02:30:12;;;;;;;7.28;3.65;;;5.20;99.90;;;;;;5003318;28;20053;-73
2021/04/03 02:32:40;;;;;;;5.07;3.58;;;5.20;99.90;;;;;;5007854;28;20472;-73
2021/04/03 02:35:06;;;;;;;6.30;3.33;;;5.10;99.90;;;;;;5014542;28;20029;-73
2021/04/03 02:37:32;;;;;;;5.25;3.80;;;5.10;99.90;;;;;;5011039;28;20026;-73
2021/04/03 02:39:57;;;;;;;8.10;3.58;;;5.20;99.90;;;;;;5016058;28;20587;-73
2021/04/03 02:42:25;;;;;;;9.68;3.95;;;5.20;99.90;;;;;;5005340;28;20022;-73
2021/04/03 02:44:58;;;;;;;5.88;3.92;;;5.00;99.90;;;;;;5014705;28;20029;-73
2021/04/03 02:47:32;;;;;;;6.13;3.72;;;4.90;99.90;;;;;;5016100;28;20022;-73
2021/04/03 02:49:57;;;;;;;4.90;3.40;;;4.90;99.90;;;;;;5018263;28;20072;-72
2021/04/03 02:52:26;;;;;;;5.75;3.53;;;4.90;99.90;;;;;;5014650;28;20042;-73
2021/04/03 02:54:52;;;;;;;6.50;3.65;;;4.60;99.90;;;;;;5020155;28;20025;-73
2021/04/03 02:57:19;;;;;;;7.40;4.45;;;4.60;99.90;;;;;;5018872;28;20030;-72
2021/04/03 02:59:51;;;;;;;4.85;4.38;;;4.60;99.90;;;;;;5014136;28;20025;-72
2021/04/03 03:02:21;;;;;;;7.57;3.90;;;4.50;99.90;;;;;;5010601;28;20101;-72
2021/04/03 03:04:48;;;;;;;7.47;4.10;;;4.40;99.90;;;;;;5009635;28;20468;-71
2021/04/03 03:07:14;;;;;;;5.32;3.83;;;4.50;99.90;;;;;;5007308;28;20061;-72
2021/04/03 03:09:46;;;;;;;7.85;4.20;;;4.40;99.90;;;;;;5004548;28;20029;-71
2021/04/03 03:12:14;;;;;;;6.25;3.90;;;4.30;99.90;;;;;;5020138;28;20053;-72
2021/04/03 03:14:41;;;;;;;5.72;3.92;;;4.20;99.90;;;;;;5010012;28;20108;-72
2021/04/03 03:17:09;;;;;;;8.05;4.53;;;4.10;99.90;;;;;;5008826;28;20026;-73
2021/04/03 03:19:37;;;;;;;6.40;4.35;;;4.00;99.90;;;;;;5018665;28;20065;-73
2021/04/03 03:22:04;;;;;;;9.05;5.18;;;4.10;99.90;;;;;;5022553;28;20026;-71
2021/04/03 03:24:30;;;;;;;6.85;4.75;;;3.90;99.90;;;;;;5019335;28;20025;-72
2021/04/03 03:26:57;;;;;;;7.95;5.55;;;4.10;99.90;;;;;;5013881;28;20022;-72
2021/04/03 03:29:24;;;;;;;7.57;5.18;;;4.00;99.90;;;;;;5012492;28;20112;-72
2021/04/03 03:31:50;;;;;;;5.57;4.78;;;3.90;99.90;;;;;;5017112;28;20026;-73
2021/04/03 03:34:15;;;;;;;6.32;4.88;;;3.80;99.90;;;;;;5014028;28;20147;-73
2021/04/03 03:36:41;;;;;;;6.88;6.03;;;3.70;99.90;;;;;;5027021;28;20072;-73
2021/04/03 03:39:08;;;;;;;9.02;6.10;;;3.70;99.90;;;;;;5017054;28;20105;-74
2021/04/03 03:41:36;;;;;;;10.98;6.38;;;3.80;99.90;;;;;;5008338;28;20022;-72
2021/04/03 03:44:03;;;;;;;6.88;5.57;;;3.80;99.90;;;;;;5016282;28;20026;-73
2021/04/03 03:46:28;;;;;;;6.75;5.53;;;4.00;99.90;;;;;;5011967;28;20029;-72
2021/04/03 03:48:54;;;;;;;5.72;5.22;;;3.90;99.90;;;;;;5007764;28;20013;-73
2021/04/03 03:51:20;;;;;;;9.70;5.45;;;4.00;99.90;;;;;;5013211;28;20065;-73
2021/04/03 03:53:45;;;;;;;9.20;5.72;;;3.90;99.90;;;;;;5017061;28;20072;-73
2021/04/03 03:56:11;;;;;;;10.75;5.53;;;3.90;99.90;;;;;;5012106;28;20022;-73
2021/04/03 03:58:36;;;;;;;9.85;5.97;;;3.90;99.90;;;;;;5002463;28;20081;-73
2021/04/03 04:01:02;;;;;;;14.73;5.63;;;4.00;99.90;;;;;;5028579;28;20034;-72
2021/04/03 04:03:27;;;;;;;7.80;5.93;;;4.10;99.90;;;;;;5013324;28;20407;-71
2021/04/03 04:05:53;;;;;;;7.65;5.22;;;4.10;99.90;;;;;;5007374;28;20033;-72
2021/04/03 04:08:19;;;;;;;6.65;5.75;;;4.00;99.90;;;;;;5011400;28;20503;-72
2021/04/03 04:10:45;;;;;;;8.35;5.30;;;4.00;99.90;;;;;;5016718;28;20476;-72
2021/04/03 04:13:11;;;;;;;8.80;5.43;;;4.10;99.90;;;;;;5012826;28;20029;-72
2021/04/03 04:15:37;;;;;;;11.43;6.35;;;4.00;99.90;;;;;;5007920;28;20411;-72
2021/04/03 04:18:03;;;;;;;8.98;5.85;;;4.00;99.90;;;;;;5011687;28;20057;-72
2021/04/03 04:20:29;;;;;;;9.13;6.10;;;3.90;99.90;;;;;;5005342;28;20415;-72
2021/04/03 04:22:55;;;;;;;9.75;6.10;;;3.90;99.90;;;;;;5011458;28;20110;-72
2021/04/03 04:25:21;;;;;;;10.98;6.28;;;3.90;99.90;;;;;;4999400;28;20065;-72
2021/04/03 04:27:46;;;;;;;9.38;6.05;;;4.00;99.90;;;;;;5001192;28;20019;-73
2021/04/03 04:30:13;;;;;;;8.65;5.45;;;4.00;99.90;;;;;;5006387;28;20030;-71
2021/04/03 04:32:40;;;;;;;8.63;5.88;;;4.00;99.90;;;;;;5003397;28;20435;-73
2021/04/03 04:35:07;;;;;;;9.45;5.80;;;4.00;99.90;;;;;;4998094;28;20080;-71
2021/04/03 04:37:33;;;;;;;7.93;5.68;;;4.00;99.90;;;;;;5001909;28;20472;-73
2021/04/03 04:39:58;;;;;;;9.73;6.22;;;3.90;99.90;;;;;;5006312;28;20085;-70
2021/04/03 04:42:24;;;;;;;11.18;6.97;;;3.80;99.90;;;;;;5003324;28;20089;-72
2021/04/03 04:44:50;;;;;;;11.13;6.68;;;3.90;99.90;;;;;;4999104;28;20030;-73
2021/04/03 04:47:15;;;;;;;11.75;6.25;;;3.90;99.90;;;;;;5001100;28;20030;-72
2021/04/03 04:49:41;;;;;;;9.88;6.70;;;3.70;99.90;;;;;;5004822;28;20365;-72
2021/04/03 04:52:07;;;;;;;10.60;6.82;;;3.90;99.90;;;;;;5003278;28;20025;-72
2021/04/03 04:54:32;;;;;;;10.80;6.22;;;3.90;99.90;;;;;;4999020;28;20045;-72
2021/04/03 04:56:58;;;;;;;10.32;7.53;;;3.90;99.90;;;;;;5002518;28;20043;-71
2021/04/03 04:59:23;;;;;;;10.48;8.73;;;3.90;99.90;;;;;;4995784;28;20033;-71
2021/04/03 05:01:49;;;;;;;11.55;7.93;;;3.90;99.90;;;;;;5002848;28;20073;-71
2021/04/03 05:04:14;;;;;;;10.25;8.07;;;3.90;99.90;;;;;;5005537;28;20061;-71
2021/04/03 05:06:40;;;;;;;10.80;7.22;;;4.00;99.90;;;;;;5002650;28;20034;-71
2021/04/03 05:09:05;;;;;;;8.73;6.22;;;3.80;99.90;;;;;;4997532;28;20033;-72
2021/04/03 05:11:31;;;;;;;10.20;6.63;;;3.80;99.90;;;;;;5002832;28;20117;-72
2021/04/03 05:13:56;;;;;;;12.98;10.38;;;3.90;99.90;;;;;;4995411;28;20032;-73
2021/04/03 05:16:22;;;;;;;8.52;7.25;;;3.90;99.90;;;;;;5001503;28;20033;-74
2021/04/03 05:18:47;;;;;;;10.23;7.82;;;4.00;99.90;;;;;;5006268;28;20120;-73
2021/04/03 05:21:13;;;;;;;13.35;9.90;;;4.00;99.90;;;;;;5001487;28;20545;-74
2021/04/03 05:23:38;;;;;;;10.32;7.97;;;4.00;99.90;;;;;;4998773;28;20027;-73
2021/04/03 05:26:04;;;;;;;13.48;6.82;;;4.00;99.90;;;;;;5002921;28;20396;-73
2021/04/03 05:28:29;;;;;;;13.88;6.80;;;3.90;99.90;;;;;;5004430;28;20057;-72
2021/04/03 05:30:55;;;;;;;12.68;7.28;;;4.10;99.90;;;;;;5002306;28;20058;-73
2021/04/03 05:33:20;;;;;;;11.60;7.07;;;4.00;99.90;;;;;;4999092;28;20024;-72
2021/04/03 05:35:46;;;;;;;10.75;7.13;;;4.20;99.90;;;;;;5002356;28;20066;-72
2021/04/03 05:38:11;;;;;;;11.27;7.90;;;4.20;99.90;;;;;;5005505;28;20492;-72
2021/04/03 05:40:37;;;;;;;11.95;10.32;;;4.30;99.90;;;;;;5009842;28;20025;-72
2021/04/03 05:43:04;;;;;;;9.85;7.93;;;4.50;99.90;;;;;;5012808;28;20455;-73
2021/04/03 05:45:35;;;;;;;10.15;8.32;;;4.50;99.90;;;;;;5001997;28;20025;-72
2021/04/03 05:48:03;;;;;;;12.65;6.70;;;4.50;99.90;;;;;;4999654;28;20034;-73
2021/04/03 05:50:29;;;;;;;14.05;6.38;;;4.40;99.90;;;;;;5001864;28;20023;-72
2021/04/03 05:52:54;;;;;;;11.75;6.40;;;4.30;99.90;;;;;;5004307;28;20077;-74
2021/04/03 05:55:20;;;;;;;11.00;7.80;;;4.30;99.90;;;;;;5003063;28;20105;-72
2021/04/03 05:57:46;;;;;;;12.05;6.20;;;4.30;99.90;;;;;;4998988;28;20032;-73
2021/04/03 06:00:12;;;;;;;12.02;6.20;;;4.20;99.90;;;;;;5011948;28;20037;-73
2021/04/03 06:02:39;;;;;;;12.13;7.60;;;4.30;99.90;;;;;;4998897;28;20076;-73
2021/04/03 06:05:06;;;;;;;14.73;7.40;;;4.20;99.90;;;;;;5011920;28;20582;-72
2021/04/03 06:07:31;;;;;;;12.27;6.00;;;4.30;99.90;;;;;;4998615;28;20037;-72
2021/04/03 06:10:02;;;;;;;11.07;6.85;;;4.20;99.90;;;;;;5000536;28;20027;-71
2021/04/03 06:12:37;;;;;;;11.10;6.30;;;4.40;99.90;;;;;;5005156;28;20050;-70
2021/04/03 06:15:02;;;;;;;10.35;6.25;;;4.30;99.90;;;;;;5003293;28;20116;-73
2021/04/03 06:17:28;;;;;;;11.20;6.10;;;4.40;99.90;;;;;;4997152;28;20137;-73
2021/04/03 06:19:53;;;;;;;11.93;6.70;;;4.20;99.90;;;;;;5000318;28;20033;-72
2021/04/03 06:22:19;;;;;;;18.13;9.15;;;4.20;99.90;;;;;;5008865;28;20054;-72
2021/04/03 06:24:45;;;;;;;15.63;6.68;;;4.40;99.90;;;;;;5003629;28;20503;-72
2021/04/03 06:27:19;;;;;;;12.55;6.85;;;4.60;99.90;;;;;;5000757;28;20080;-72
2021/04/03 06:29:47;;;;;;;12.95;6.93;;;4.50;99.90;;;;;;5002091;28;20022;-72
2021/04/03 06:32:31;;;;;;;11.77;8.05;;;4.60;99.90;;;;;;5007709;28;20118;-71
2021/04/03 06:34:57;;;;;;;12.95;7.15;;;4.70;99.90;;;;;;5008232;28;20026;-72
2021/04/03 06:37:31;;;;;;;15.73;7.07;;;4.70;99.90;;;;;;5014128;28;20029;-73
2021/04/03 06:39:58;;;;;;;11.80;6.45;;;4.80;99.90;;;;;;5017430;28;20037;-72
2021/04/03 06:42:43;;;;;;;14.93;7.82;;;5.00;99.90;;;;;;5004305;28;20480;-73
2021/04/03 06:45:31;;;;;;;13.00;6.68;;;5.20;99.90;;;;;;5001337;28;20036;-72
2021/04/03 06:48:11;;;;;;;15.18;7.18;;;5.10;99.90;;;;;;5001443;28;20030;-72
2021/04/03 06:50:40;;;;;;;14.75;8.73;;;4.80;99.90;;;;;;5002303;28;20053;-73
2021/04/03 06:53:08;;;;;;;16.98;6.97;;;4.90;99.90;;;;;;5008151;28;20028;-72
2021/04/03 06:55:35;;;;;;;15.90;6.55;;;5.00;99.90;;;;;;5005308;28;20026;-74
2021/04/03 06:58:03;;;;;;;12.32;6.50;;;5.10;99.90;;;;;;5009242;28;20503;-72
2021/04/03 07:00:33;;;;;;;11.82;6.78;;;5.10;99.90;;;;;;5006945;28;20034;-72
2021/04/03 07:03:10;;;;;;;14.88;7.00;;;5.20;99.90;;;;;;4999841;28;20118;-73
2021/04/03 07:05:36;;;;;;;13.90;6.20;;;4.90;99.90;;;;;;5001153;28;20050;-72
2021/04/03 07:08:04;;;;;;;16.25;7.22;;;4.90;99.90;;;;;;5006837;28;20023;-72
2021/04/03 07:10:30;;;;;;;13.18;6.50;;;4.80;99.90;;;;;;5006511;28;20022;-72
2021/04/03 07:12:57;;;;;;;11.88;6.07;;;4.90;99.90;;;;;;5002362;28;20022;-71
2021/04/03 07:15:24;;;;;;;12.55;6.70;;;4.90;99.90;;;;;;5000572;28;20078;-72
2021/04/03 07:17:51;;;;;;;15.27;7.22;;;4.80;99.90;;;;;;5006160;28;20048;-71
2021/04/03 07:20:20;;;;;;;13.05;6.55;;;4.90;99.90;;;;;;5009097;28;20546;-73
2021/04/03 07:22:56;;;;;;;14.25;6.30;;;5.30;99.90;;;;;;5004496;28;20473;-72
2021/04/03 07:25:25;;;;;;;13.23;6.03;;;5.00;99.90;;;;;;5001498;28;20026;-72
2021/04/03 07:27:51;;;;;;;12.30;6.50;;;5.10;99.90;;;;;;5004084;28;20133;-73
2021/04/03 07:30:35;;;;;;;12.07;5.95;;;5.20;99.90;;;;;;4998886;28;20176;-71
2021/04/03 07:33:09;;;;;;;12.68;6.10;;;5.50;99.90;;;;;;4999460;28;20034;-71
2021/04/03 07:35:56;;;;;;;12.48;6.82;;;5.60;99.90;;;;;;5012299;28;20033;-71
2021/04/03 07:38:23;;;;;;;10.40;5.80;;;5.40;99.90;;;;;;5000566;28;20076;-71
2021/04/03 07:40:53;;;;;;;10.63;5.47;;;5.40;99.90;;;;;;5002769;28;20636;-72
2021/04/03 07:43:44;;;;;;;9.65;5.60;;;5.40;99.90;;;;;;5011904;28;20029;-72
2021/04/03 07:46:12;;;;;;;10.45;5.95;;;5.30;99.90;;;;;;5012094;28;20117;-72
2021/04/03 07:48:37;;;;;;;12.35;5.97;;;5.40;99.90;;;;;;5002359;28;20036;-72
2021/04/03 07:51:08;;;;;;;11.88;5.28;;;5.70;99.90;;;;;;5000243;28;20105;-72
2021/04/03 07:53:38;;;;;;;11.70;5.65;;;5.80;99.90;;;;;;5004125;28;20041;-72
2021/04/03 07:56:05;;;;;;;9.27;5.47;;;5.60;99.90;;;;;;5006843;28;20029;-72
2021/04/03 07:58:35;;;;;;;10.77;5.78;;;5.80;99.90;;;;;;5002427;28;20026;-72
2021/04/03 08:01:04;;;;;;;8.85;5.63;;;6.00;99.90;;;;;;4996368;28;20026;-71
2021/04/03 08:03:32;;;;;;;9.70;6.22;;;5.80;99.90;;;;;;5004179;28;20472;-72
2021/04/03 08:06:06;;;;;;;14.48;6.38;;;5.70;99.90;;;;;;4994598;28;20022;-72
2021/04/03 08:08:34;;;;;;;8.93;5.72;;;5.70;99.90;;;;;;5005837;28;20494;-69
2021/04/03 08:11:15;;;;;;;11.45;5.65;;;6.00;99.90;;;;;;5026493;28;20057;-70
2021/04/03 08:13:43;;;;;;;12.90;5.32;;;5.90;99.90;;;;;;5011582;28;20033;-69
2021/04/03 08:16:10;;;;;;;9.38;5.43;;;5.90;99.90;;;;;;5001629;28;20029;-72
2021/04/03 08:18:37;;;;;;;10.40;5.18;;;6.00;99.90;;;;;;4998862;28;20026;-73
2021/04/03 08:21:04;;;;;;;10.98;5.38;;;6.00;99.90;;;;;;5004399;28;20022;-73
2021/04/03 08:23:48;;;;;;;12.13;5.00;;;6.00;99.90;;;;;;5005016;28;20037;-74
2021/04/03 08:26:15;;;;;;;8.27;4.65;;;5.90;99.90;;;;;;5004384;28;20036;-73
2021/04/03 08:28:40;;;;;;;9.48;5.40;;;5.70;99.90;;;;;;5007230;28;20026;-73
2021/04/03 08:31:18;;;;;;;9.75;5.28;;;5.60;99.90;;;;;;5004108;28;20030;-74
2021/04/03 08:33:53;;;;;;;8.20;5.13;;;5.70;99.90;;;;;;4997930;28;20029;-74
2021/04/03 08:36:21;;;;;;;11.25;5.03;;;5.70;99.90;;;;;;5026023;28;20040;-74
2021/04/03 08:38:46;;;;;;;10.30;5.47;;;5.80;99.90;;;;;;5005634;28;20447;-73
2021/04/03 08:41:24;;;;;;;8.35;4.80;;;6.20;99.90;;;;;;5005885;28;20112;-74
2021/04/03 08:43:51;;;;;;;10.02;5.20;;;6.20;99.90;;;;;;4990535;28;20502;-73
2021/04/03 08:46:18;;;;;;;10.32;5.28;;;6.40;99.90;;;;;;5008685;28;20030;-72
2021/04/03 08:48:46;;;;;;;10.43;5.40;;;6.10;99.90;;;;;;5012653;28;20429;-72
2021/04/03 08:51:12;;;;;;;8.95;5.28;;;6.10;99.90;;;;;;5012180;28;20084;-72
2021/04/03 08:53:49;;;;;;;8.18;4.72;;;6.10;99.90;;;;;;5001579;28;20026;-72
2021/04/03 08:56:20;;;;;;;9.02;5.20;;;6.30;99.90;;;;;;5008302;28;20034;-73
2021/04/03 08:58:45;;;;;;;10.32;4.95;;;6.40;99.90;;;;;;5012215;28;20451;-72
2021/04/03 09:01:11;;;;;;;11.20;5.03;;;6.60;99.90;;;;;;5012074;28;20061;-72
2021/04/03 09:03:37;;;;;;;9.80;5.13;;;6.60;99.90;;;;;;5011895;28;20064;-72
2021/04/03 09:06:05;;;;;;;10.18;5.43;;;6.50;99.90;;;;;;5012177;28;20030;-72
2021/04/03 09:08:31;;;;;;;9.35;5.05;;;6.50;99.90;;;;;;5001160;28;20027;-72
2021/04/03 09:11:00;;;;;;;7.95;4.80;;;6.40;99.90;;;;;;5009779;28;20068;-72
2021/04/03 09:13:36;;;;;;;8.90;4.97;;;6.50;99.90;;;;;;5011867;28;20108;-72
2021/04/03 09:16:06;;;;;;;;;;;6.50;99.90;;;;;;4999243;28;20523;-72
2021/04/03 09:18:31;;;;;;;8.40;4.22;;;6.70;99.90;;;;;;5010815;28;19906;-72
2021/04/03 09:20:57;;;;;;;8.63;4.43;;;6.90;99.90;;;;;;4997290;28;20675;-72
2021/04/03 09:23:23;;;;;;;6.80;3.72;;;7.00;99.90;;;;;;5011708;28;20026;-73
2021/04/03 09:26:03;;;;;;;9.73;4.47;;;7.20;99.90;;;;;;5011657;28;20046;-71
2021/04/03 09:28:47;;;;;;;9.10;4.65;;;7.40;99.90;;;;;;5011824;28;20026;-72
2021/04/03 09:31:12;;;;;;;8.20;4.10;;;7.50;99.90;;;;;;5011978;28;20029;-72
2021/04/03 09:33:48;;;;;;;6.20;3.70;;;7.60;99.90;;;;;;5024591;28;20450;-72
2021/04/03 09:36:16;;;;;;;8.35;4.05;;;8.00;99.90;;;;;;5011713;28;20061;-71
2021/04/03 09:38:43;;;;;;;9.82;4.10;;;7.80;99.90;;;;;;4999045;28;20033;-72
2021/04/03 09:41:30;;;;;;;9.32;3.88;;;7.80;99.90;;;;;;5010755;28;20029;-72
2021/04/03 09:43:56;;;;;;;5.22;3.80;;;7.90;99.90;;;;;;5012000;28;20042;-73
2021/04/03 09:46:22;;;;;;;8.88;4.75;;;7.70;99.90;;;;;;5021214;28;20020;-73
2021/04/03 09:48:48;;;;;;;9.77;4.72;;;7.60;99.90;;;;;;5011834;28;20029;-72
2021/04/03 09:51:14;;;;;;;10.43;4.35;;;7.60;99.90;;;;;;5011723;28;20037;-73
2021/04/03 09:53:40;;;;;;;8.55;4.05;;;7.90;99.90;;;;;;5012161;28;20041;-72
2021/04/03 09:56:06;;;;;;;5.03;3.63;;;7.90;99.90;;;;;;5015927;28;20430;-73
2021/04/03 09:58:32;;;;;;;11.55;4.45;;;7.80;99.90;;;;;;5015585;28;20109;-73
2021/04/03 10:00:58;;;;;;;8.25;5.15;;;8.00;99.90;;;;;;5014219;28;20029;-72
2021/04/03 10:03:24;;;;;;;8.95;4.63;;;8.10;99.90;;;;;;5015107;28;20399;-72
2021/04/03 10:05:50;;;;;;;7.43;4.18;;;7.90;99.90;;;;;;5013965;28;20045;-72
2021/04/03 10:08:15;;;;;;;7.70;3.90;;;7.70;99.90;;;;;;5015346;28;20026;-71
2021/04/03 10:10:42;;;;;;;6.93;3.95;;;7.80;99.90;;;;;;5015172;28;20058;-72
2021/04/03 10:13:08;;;;;;;7.82;4.63;;;7.80;99.90;;;;;;5015044;28;20380;-72
2021/04/03 10:15:35;;;;;;;6.93;4.00;;;7.50;99.90;;;;;;5014493;28;20492;-72
2021/04/03 10:18:00;;;;;;;9.75;4.18;;;8.00;99.90;;;;;;5005198;28;20040;-73
2021/04/03 10:20:26;;;;;;;8.52;4.60;;;8.40;99.90;;;;;;5010471;28;20030;-72
2021/04/03 10:22:52;;;;;;;6.82;4.05;;;8.40;99.90;;;;;;5015184;28;20022;-73
2021/04/03 10:25:17;;;;;;;10.30;3.97;;;8.90;99.90;;;;;;5009933;28;20023;-72
2021/04/03 10:27:43;;;;;;;7.45;3.75;;;8.80;99.90;;;;;;5004101;28;20380;-72
2021/04/03 10:30:11;;;;;;;8.27;3.90;;;8.50;99.90;;;;;;5014894;28;20105;-73
2021/04/03 10:32:36;;;;;;;7.45;4.15;;;8.10;99.90;;;;;;5024766;28;20030;-73
2021/04/03 10:35:03;;;;;;;6.13;3.78;;;7.90;99.90;;;;;;5017280;28;20056;-73
2021/04/03 10:37:29;;;;;;;6.78;3.63;;;7.90;99.90;;;;;;5014757;28;20037;-72
2021/04/03 10:39:55;;;;;;;5.63;3.28;;;8.00;99.90;;;;;;5013292;28;20026;-72
2021/04/03 10:42:20;;;;;;;7.97;3.90;;;7.60;99.90;;;;;;5005193;28;20030;-72
2021/04/03 10:44:46;;;;;;;7.13;3.75;;;7.60;99.90;;;;;;5022910;28;20504;-72
2021/04/03 10:47:11;;;;;;;8.85;4.05;;;7.90;99.90;;;;;;5004383;28;20026;-72
2021/04/03 10:49:37;;;;;;;5.50;3.53;;;8.40;99.90;;;;;;4999916;28;20510;-72
2021/04/03 10:52:03;;;;;;;7.45;3.50;;;8.90;99.90;;;;;;5014397;28;20027;-72
2021/04/03 10:54:28;;;;;;;6.15;3.70;;;9.10;99.90;;;;;;5011160;28;20030;-72
2021/04/03 10:56:54;;;;;;;6.47;4.05;;;8.80;99.90;;;;;;5004227;28;20101;-73
2021/04/03 10:59:19;;;;;;;16.08;7.78;;;8.50;99.90;;;;;;5015669;28;20036;-72
2021/04/03 11:01:45;;;;;;;8.82;4.60;;;8.00;99.90;;;;;;5015601;28;20022;-72
2021/04/03 11:04:11;;;;;;;7.63;3.38;;;7.80;99.90;;;;;;5009818;28;20026;-72
2021/04/03 11:06:36;;;;;;;6.65;3.78;;;7.60;99.90;;;;;;5012011;28;20048;-72
2021/04/03 11:09:02;;;;;;;6.68;3.67;;;7.90;99.90;;;;;;5014086;28;20026;-72
2021/04/03 11:11:30;;;;;;;5.88;3.40;;;7.90;99.90;;;;;;5013896;28;20389;-72
2021/04/03 11:13:55;;;;;;;4.65;3.10;;;7.90;99.90;;;;;;5012784;28;20071;-72
2021/04/03 11:16:21;;;;;;;7.00;3.50;;;7.90;99.90;;;;;;5013159;28;20030;-72
2021/04/03 11:18:46;;;;;;;7.55;3.47;;;8.20;99.90;;;;;;5013813;28;20026;-72
2021/04/03 11:21:12;;;;;;;7.07;3.33;;;8.90;99.90;;;;;;5013882;28;20030;-72
2021/04/03 11:23:37;;;;;;;5.47;3.00;;;9.40;99.90;;;;;;5013615;28;20080;-72
2021/04/03 11:26:03;;;;;;;5.78;2.97;;;9.10;99.90;;;;;;5013765;28;20054;-72
2021/04/03 11:28:28;;;;;;;3.17;2.53;;;8.80;99.90;;;;;;5013587;28;20030;-72
2021/04/03 11:30:54;;;;;;;4.93;2.63;;;8.50;99.90;;;;;;5013725;28;20105;-72
2021/04/03 11:33:20;;;;;;;6.22;2.83;;;8.30;99.90;;;;;;5014972;28;20561;-73
2021/04/03 11:35:46;;;;;;;4.53;2.53;;;8.50;99.90;;;;;;5023839;28;20388;-72
2021/04/03 11:38:11;;;;;;;3.78;2.30;;;8.80;99.90;;;;;;4996571;28;20395;-73
2021/04/03 11:40:37;;;;;;;3.58;2.45;;;9.10;99.90;;;;;;5001734;28;20034;-72
2021/04/03 11:43:03;;;;;;;4.63;2.97;;;9.50;99.90;;;;;;5015984;28;20423;-73
2021/04/03 11:45:29;;;;;;;6.63;3.20;;;9.70;99.90;;;;;;5015131;28;20105;-73
2021/04/03 11:47:55;;;;;;;3.95;2.58;;;9.80;99.90;;;;;;4996107;28;20110;-73
2021/04/03 11:50:21;;;;;;;6.07;3.20;;;9.90;99.90;;;;;;5013369;28;20483;-73
2021/04/03 11:52:47;;;;;;;4.05;2.58;;;10.20;99.90;;;;;;5023845;28;20032;-73
2021/04/03 11:55:15;;;;;;;4.70;2.38;;;9.80;99.60;;;;;;4993400;28;20034;-73
2021/04/03 11:57:42;;;;;;;3.90;2.85;;;10.40;99.70;;;;;;4996365;28;20030;-72
2021/04/03 12:00:08;;;;;;;5.53;2.75;;;10.60;95.80;;;;;;5013097;28;20117;-73
2021/04/03 12:02:38;;;;;;;3.53;2.33;;;10.50;94.90;;;;;;5023586;28;20045;-72
2021/04/03 12:05:06;;;;;;;3.90;2.50;;;10.30;94.00;;;;;;5002973;28;20048;-72
2021/04/03 12:07:38;;;;;;;3.95;2.60;;;10.10;96.10;;;;;;4999785;28;20030;-72
2021/04/03 12:10:06;;;;;;;5.68;3.05;;;10.30;98.20;;;;;;5013018;28;20044;-73
2021/04/03 12:12:31;;;;;;;4.55;2.78;;;10.20;94.30;;;;;;5012910;28;20034;-72
2021/04/03 12:14:57;;;;;;;3.72;2.42;;;10.80;95.20;;;;;;5012678;28;20032;-73
2021/04/03 12:17:23;;;;;;;5.25;3.05;;;10.40;95.10;;;;;;5017381;28;20388;-73
2021/04/03 12:19:49;;;;;;;4.82;2.83;;;10.00;96.10;;;;;;5009773;28;20050;-70
2021/04/03 12:22:14;;;;;;;4.97;2.63;;;9.60;96.20;;;;;;5010855;28;20468;-72
2021/04/03 12:24:40;;;;;;;6.30;2.75;;;9.40;96.70;;;;;;5012338;28;20093;-73
2021/04/03 12:27:06;;;;;;;5.72;2.78;;;9.20;97.40;;;;;;5006579;28;20546;-72
2021/04/03 12:29:31;;;;;;;4.05;2.58;;;9.10;97.90;;;;;;5003333;28;20049;-72
2021/04/03 12:31:56;;;;;;;6.35;3.03;;;9.40;98.80;;;;;;5003717;28;20029;-73
2021/04/03 12:34:22;;;;;;;5.82;2.90;;;9.60;99.00;;;;;;5020690;28;20034;-72
2021/04/03 12:36:48;;;;;;;8.77;3.03;;;9.60;98.10;;;;;;5017102;28;20646;-73
2021/04/03 12:39:13;;;;;;;4.72;3.25;;;9.40;97.70;;;;;;5009814;28;20057;-73
2021/04/03 12:41:39;;;;;;;3.75;2.33;;;9.50;97.90;;;;;;5010168;28;20080;-72
2021/04/03 12:44:04;;;;;;;3.70;2.88;;;9.60;97.30;;;;;;5023001;28;20040;-73
2021/04/03 12:46:30;;;;;;;5.88;3.00;;;9.60;97.40;;;;;;4996576;28;20358;-72
2021/04/03 12:48:55;;;;;;;4.72;3.13;;;9.50;96.80;;;;;;5014933;28;20026;-73
2021/04/03 12:51:21;;;;;;;8.27;4.20;;;10.20;96.60;;;;;;4996838;28;20037;-72
2021/04/03 12:53:46;;;;;;;6.05;3.25;;;11.60;96.90;;;;;;5001751;28;20025;-73
2021/04/03 12:56:12;;;;;;;5.60;2.97;;;12.70;95.10;;;;;;5012167;28;20500;-73